sensor_id;sensor_type;location;lat;lon;timestamp;P1;durP1;ratioP1;P2;durP2;ratioP2
22388;SDS011;11362;48.102;11.620;2023-02-28T00:00:17;0.90;;;0.90;;
22388;SDS011;11362;48.102;11.620;2023-02-28T00:02:43;0.93;;;0.93;;
22388;SDS011;11362;48.102;11.620;2023-02-28T00:05:10;1.07;;;1.00;;
22388;SDS011;11362;48.102;11.620;2023-02-28T00:07:37;1.10;;;1.10;;
22388;SDS011;11362;48.102;11.620;2023-02-28T00:10:04;2.13;;;1.27;;
22388;SDS011;11362;48.102;11.620;2023-02-28T00:12:30;1.20;;;1.10;;
22388;SDS011;11362;48.102;11.620;2023-02-28T00:14:56;1.10;;;1.10;;
22388;SDS011;11362;48.102;11.620;2023-02-28T00:17:21;1.20;;;1.10;;
22388;SDS011;11362;48.102;11.620;2023-02-28T00:19:50;1.33;;;1.23;;
22388;SDS011;11362;48.102;11.620;2023-02-28T00:22:20;1.40;;;1.17;;
22388;SDS011;11362;48.102;11.620;2023-02-28T00:24:46;1.17;;;1.00;;
22388;SDS011;11362;48.102;11.620;2023-02-28T00:27:11;0.80;;;0.80;;
22388;SDS011;11362;48.102;11.620;2023-02-28T00:29:37;1.53;;;1.07;;
22388;SDS011;11362;48.102;11.620;2023-02-28T00:32:02;0.90;;;0.80;;
22388;SDS011;11362;48.102;11.620;2023-02-28T00:34:29;1.17;;;0.90;;
22388;SDS011;11362;48.102;11.620;2023-02-28T00:36:54;1.10;;;1.00;;
22388;SDS011;11362;48.102;11.620;2023-02-28T00:39:20;1.03;;;1.00;;
22388;SDS011;11362;48.102;11.620;2023-02-28T00:41:45;1.07;;;0.97;;
22388;SDS011;11362;48.102;11.620;2023-02-28T00:44:10;1.20;;;1.00;;
22388;SDS011;11362;48.102;11.620;2023-02-28T00:46:36;1.00;;;1.00;;
22388;SDS011;11362;48.102;11.620;2023-02-28T00:49:01;0.80;;;0.80;;
22388;SDS011;11362;48.102;11.620;2023-02-28T00:51:26;1.47;;;1.30;;
22388;SDS011;11362;48.102;11.620;2023-02-28T00:53:52;1.10;;;1.00;;
22388;SDS011;11362;48.102;11.620;2023-02-28T00:56:17;0.70;;;0.70;;
22388;SDS011;11362;48.102;11.620;2023-02-28T00:58:42;1.43;;;1.33;;
22388;SDS011;11362;48.102;11.620;2023-02-28T01:01:08;1.30;;;1.20;;
22388;SDS011;11362;48.102;11.620;2023-02-28T01:03:33;1.10;;;1.10;;
22388;SDS011;11362;48.102;11.620;2023-02-28T01:05:58;0.87;;;0.87;;
22388;SDS011;11362;48.102;11.620;2023-02-28T01:08:24;1.10;;;1.00;;
22388;SDS011;11362;48.102;11.620;2023-02-28T01:10:49;1.00;;;1.00;;
22388;SDS011;11362;48.102;11.620;2023-02-28T01:13:15;1.37;;;1.30;;
22388;SDS011;11362;48.102;11.620;2023-02-28T01:15:42;0.90;;;0.90;;
22388;SDS011;11362;48.102;11.620;2023-02-28T01:18:10;0.97;;;0.97;;
22388;SDS011;11362;48.102;11.620;2023-02-28T01:20:36;1.10;;;1.00;;
22388;SDS011;11362;48.102;11.620;2023-02-28T01:23:02;0.90;;;0.90;;
22388;SDS011;11362;48.102;11.620;2023-02-28T01:25:27;1.20;;;1.10;;
22388;SDS011;11362;48.102;11.620;2023-02-28T01:27:53;1.50;;;1.33;;
22388;SDS011;11362;48.102;11.620;2023-02-28T01:30:18;1.60;;;1.30;;
22388;SDS011;11362;48.102;11.620;2023-02-28T01:32:43;1.30;;;1.20;;
22388;SDS011;11362;48.102;11.620;2023-02-28T01:35:09;1.10;;;1.00;;
22388;SDS011;11362;48.102;11.620;2023-02-28T01:37:34;1.10;;;1.00;;
22388;SDS011;11362;48.102;11.620;2023-02-28T01:39:59;1.00;;;1.00;;
22388;SDS011;11362;48.102;11.620;2023-02-28T01:42:25;2.33;;;1.20;;
22388;SDS011;11362;48.102;11.620;2023-02-28T01:44:55;1.77;;;1.27;;
22388;SDS011;11362;48.102;11.620;2023-02-28T01:47:38;1.00;;;1.00;;
22388;SDS011;11362;48.102;11.620;2023-02-28T01:50:09;0.87;;;0.87;;
22388;SDS011;11362;48.102;11.620;2023-02-28T01:52:39;1.17;;;1.00;;
22388;SDS011;11362;48.102;11.620;2023-02-28T01:55:06;1.20;;;1.10;;
22388;SDS011;11362;48.102;11.620;2023-02-28T01:57:34;1.10;;;1.10;;
22388;SDS011;11362;48.102;11.620;2023-02-28T02:00:36;1.00;;;0.90;;
22388;SDS011;11362;48.102;11.620;2023-02-28T02:02:57;1.10;;;1.00;;
22388;SDS011;11362;48.102;11.620;2023-02-28T02:05:25;0.93;;;0.93;;
22388;SDS011;11362;48.102;11.620;2023-02-28T02:07:54;1.33;;;1.23;;
22388;SDS011;11362;48.102;11.620;2023-02-28T02:10:25;1.17;;;1.17;;
22388;SDS011;11362;48.102;11.620;2023-02-28T02:13:18;1.00;;;1.00;;
22388;SDS011;11362;48.102;11.620;2023-02-28T02:34:21;1.30;;;1.20;;
22388;SDS011;11362;48.102;11.620;2023-02-28T02:37:21;1.10;;;1.00;;
22388;SDS011;11362;48.102;11.620;2023-02-28T02:39:58;0.93;;;0.93;;
22388;SDS011;11362;48.102;11.620;2023-02-28T02:45:17;1.13;;;1.03;;
22388;SDS011;11362;48.102;11.620;2023-02-28T02:47:48;1.07;;;1.00;;
22388;SDS011;11362;48.102;11.620;2023-02-28T02:50:17;0.90;;;0.90;;
22388;SDS011;11362;48.102;11.620;2023-02-28T02:52:49;1.30;;;1.10;;
22388;SDS011;11362;48.102;11.620;2023-02-28T02:55:19;1.10;;;1.10;;
22388;SDS011;11362;48.102;11.620;2023-02-28T02:57:52;0.80;;;0.80;;
22388;SDS011;11362;48.102;11.620;2023-02-28T03:00:22;1.30;;;1.20;;
22388;SDS011;11362;48.102;11.620;2023-02-28T03:02:51;1.23;;;1.13;;
22388;SDS011;11362;48.102;11.620;2023-02-28T03:05:26;1.07;;;1.07;;
22388;SDS011;11362;48.102;11.620;2023-02-28T03:07:57;1.10;;;1.10;;
22388;SDS011;11362;48.102;11.620;2023-02-28T03:11:05;1.30;;;1.20;;
22388;SDS011;11362;48.102;11.620;2023-02-28T03:27:27;1.13;;;1.00;;
22388;SDS011;11362;48.102;11.620;2023-02-28T03:30:00;1.27;;;1.20;;
22388;SDS011;11362;48.102;11.620;2023-02-28T03:32:31;1.23;;;1.13;;
22388;SDS011;11362;48.102;11.620;2023-02-28T03:35:09;1.10;;;1.00;;
22388;SDS011;11362;48.102;11.620;2023-02-28T03:37:40;1.00;;;1.00;;
22388;SDS011;11362;48.102;11.620;2023-02-28T03:40:10;1.07;;;1.00;;
22388;SDS011;11362;48.102;11.620;2023-02-28T03:42:39;0.83;;;0.83;;
22388;SDS011;11362;48.102;11.620;2023-02-28T03:45:10;1.43;;;1.20;;
22388;SDS011;11362;48.102;11.620;2023-02-28T03:47:40;1.07;;;1.07;;
22388;SDS011;11362;48.102;11.620;2023-02-28T03:50:13;1.40;;;1.30;;
22388;SDS011;11362;48.102;11.620;2023-02-28T03:52:45;1.27;;;1.10;;
22388;SDS011;11362;48.102;11.620;2023-02-28T03:55:15;1.10;;;1.10;;
22388;SDS011;11362;48.102;11.620;2023-02-28T03:57:45;1.10;;;1.10;;
22388;SDS011;11362;48.102;11.620;2023-02-28T04:00:19;1.20;;;1.20;;
22388;SDS011;11362;48.102;11.620;2023-02-28T04:02:50;0.90;;;0.87;;
22388;SDS011;11362;48.102;11.620;2023-02-28T04:05:15;1.13;;;1.13;;
22388;SDS011;11362;48.102;11.620;2023-02-28T04:07:41;1.27;;;1.27;;
22388;SDS011;11362;48.102;11.620;2023-02-28T04:10:06;0.83;;;0.83;;
22388;SDS011;11362;48.102;11.620;2023-02-28T04:12:32;2.40;;;1.40;;
22388;SDS011;11362;48.102;11.620;2023-02-28T04:14:57;1.40;;;1.30;;
22388;SDS011;11362;48.102;11.620;2023-02-28T04:17:22;1.10;;;1.00;;
22388;SDS011;11362;48.102;11.620;2023-02-28T04:19:48;1.10;;;1.10;;
22388;SDS011;11362;48.102;11.620;2023-02-28T04:22:13;1.43;;;1.33;;
22388;SDS011;11362;48.102;11.620;2023-02-28T04:24:38;1.37;;;1.17;;
22388;SDS011;11362;48.102;11.620;2023-02-28T04:27:03;0.83;;;0.83;;
22388;SDS011;11362;48.102;11.620;2023-02-28T04:29:32;1.50;;;1.40;;
22388;SDS011;11362;48.102;11.620;2023-02-28T04:31:57;0.90;;;0.90;;
22388;SDS011;11362;48.102;11.620;2023-02-28T04:34:24;1.37;;;1.27;;
22388;SDS011;11362;48.102;11.620;2023-02-28T04:36:50;1.33;;;1.33;;
22388;SDS011;11362;48.102;11.620;2023-02-28T04:39:16;1.20;;;1.20;;
22388;SDS011;11362;48.102;11.620;2023-02-28T04:41:42;2.43;;;1.13;;
22388;SDS011;11362;48.102;11.620;2023-02-28T04:44:07;1.40;;;1.30;;
22388;SDS011;11362;48.102;11.620;2023-02-28T04:46:32;1.20;;;1.20;;
22388;SDS011;11362;48.102;11.620;2023-02-28T04:48:58;1.17;;;1.10;;
22388;SDS011;11362;48.102;11.620;2023-02-28T04:51:23;1.30;;;0.87;;
22388;SDS011;11362;48.102;11.620;2023-02-28T04:53:49;1.03;;;1.03;;
22388;SDS011;11362;48.102;11.620;2023-02-28T04:56:15;1.40;;;1.30;;
22388;SDS011;11362;48.102;11.620;2023-02-28T04:58:41;1.00;;;1.00;;
22388;SDS011;11362;48.102;11.620;2023-02-28T05:01:15;1.47;;;1.37;;
22388;SDS011;11362;48.102;11.620;2023-02-28T05:03:43;1.20;;;1.10;;
22388;SDS011;11362;48.102;11.620;2023-02-28T05:06:09;1.20;;;1.20;;
22388;SDS011;11362;48.102;11.620;2023-02-28T05:08:36;1.13;;;1.03;;
22388;SDS011;11362;48.102;11.620;2023-02-28T05:11:02;1.07;;;1.07;;
22388;SDS011;11362;48.102;11.620;2023-02-28T05:13:28;1.20;;;1.20;;
22388;SDS011;11362;48.102;11.620;2023-02-28T05:15:54;1.40;;;1.30;;
22388;SDS011;11362;48.102;11.620;2023-02-28T05:18:20;1.43;;;1.33;;
22388;SDS011;11362;48.102;11.620;2023-02-28T05:20:45;1.40;;;1.30;;
22388;SDS011;11362;48.102;11.620;2023-02-28T05:23:11;1.63;;;1.53;;
22388;SDS011;11362;48.102;11.620;2023-02-28T05:25:38;1.27;;;1.13;;
22388;SDS011;11362;48.102;11.620;2023-02-28T05:28:03;1.17;;;1.10;;
22388;SDS011;11362;48.102;11.620;2023-02-28T05:30:29;1.37;;;1.27;;
22388;SDS011;11362;48.102;11.620;2023-02-28T05:32:54;1.03;;;1.03;;
22388;SDS011;11362;48.102;11.620;2023-02-28T05:35:20;1.10;;;1.10;;
22388;SDS011;11362;48.102;11.620;2023-02-28T05:37:45;1.10;;;1.10;;
22388;SDS011;11362;48.102;11.620;2023-02-28T05:40:10;1.50;;;1.40;;
22388;SDS011;11362;48.102;11.620;2023-02-28T05:42:36;1.30;;;1.20;;
22388;SDS011;11362;48.102;11.620;2023-02-28T05:45:02;1.50;;;1.40;;
22388;SDS011;11362;48.102;11.620;2023-02-28T05:47:31;1.17;;;1.17;;
22388;SDS011;11362;48.102;11.620;2023-02-28T05:49:56;1.63;;;1.23;;
22388;SDS011;11362;48.102;11.620;2023-02-28T05:52:22;1.30;;;1.30;;
22388;SDS011;11362;48.102;11.620;2023-02-28T05:54:47;1.70;;;1.60;;
22388;SDS011;11362;48.102;11.620;2023-02-28T05:57:12;1.60;;;1.50;;
22388;SDS011;11362;48.102;11.620;2023-02-28T05:59:38;1.57;;;1.43;;
22388;SDS011;11362;48.102;11.620;2023-02-28T06:02:03;1.67;;;1.50;;
22388;SDS011;11362;48.102;11.620;2023-02-28T06:04:28;1.33;;;1.33;;
22388;SDS011;11362;48.102;11.620;2023-02-28T06:06:54;4.17;;;1.80;;
22388;SDS011;11362;48.102;11.620;2023-02-28T06:09:19;6.10;;;1.73;;
22388;SDS011;11362;48.102;11.620;2023-02-28T06:11:44;6.40;;;2.23;;
22388;SDS011;11362;48.102;11.620;2023-02-28T06:14:16;5.30;;;2.30;;
22388;SDS011;11362;48.102;11.620;2023-02-28T06:16:43;7.23;;;2.20;;
22388;SDS011;11362;48.102;11.620;2023-02-28T06:19:08;11.27;;;2.80;;
22388;SDS011;11362;48.102;11.620;2023-02-28T06:21:34;5.63;;;1.97;;
22388;SDS011;11362;48.102;11.620;2023-02-28T06:24:00;7.10;;;2.10;;
22388;SDS011;11362;48.102;11.620;2023-02-28T06:26:25;9.03;;;2.50;;
22388;SDS011;11362;48.102;11.620;2023-02-28T06:28:51;3.77;;;2.30;;
22388;SDS011;11362;48.102;11.620;2023-02-28T06:31:17;11.57;;;2.73;;
22388;SDS011;11362;48.102;11.620;2023-02-28T06:33:43;8.60;;;2.60;;
22388;SDS011;11362;48.102;11.620;2023-02-28T06:36:09;5.30;;;2.10;;
22388;SDS011;11362;48.102;11.620;2023-02-28T06:38:36;7.60;;;2.67;;
22388;SDS011;11362;48.102;11.620;2023-02-28T06:41:02;5.43;;;2.33;;
22388;SDS011;11362;48.102;11.620;2023-02-28T06:43:29;10.13;;;2.40;;
22388;SDS011;11362;48.102;11.620;2023-02-28T06:45:56;11.50;;;2.40;;
22388;SDS011;11362;48.102;11.620;2023-02-28T06:48:23;10.40;;;2.60;;
22388;SDS011;11362;48.102;11.620;2023-02-28T06:50:48;4.37;;;1.87;;
22388;SDS011;11362;48.102;11.620;2023-02-28T06:53:13;2.90;;;2.60;;
22388;SDS011;11362;48.102;11.620;2023-02-28T06:55:39;4.13;;;1.90;;
22388;SDS011;11362;48.102;11.620;2023-02-28T06:58:04;6.80;;;2.03;;
22388;SDS011;11362;48.102;11.620;2023-02-28T07:00:30;7.53;;;3.87;;
22388;SDS011;11362;48.102;11.620;2023-02-28T07:02:55;8.27;;;3.13;;
22388;SDS011;11362;48.102;11.620;2023-02-28T07:05:20;11.13;;;4.40;;
22388;SDS011;11362;48.102;11.620;2023-02-28T07:07:46;12.27;;;4.63;;
22388;SDS011;11362;48.102;11.620;2023-02-28T07:10:11;13.30;;;4.83;;
22388;SDS011;11362;48.102;11.620;2023-02-28T07:12:36;13.97;;;4.13;;
22388;SDS011;11362;48.102;11.620;2023-02-28T07:15:02;8.70;;;4.50;;
22388;SDS011;11362;48.102;11.620;2023-02-28T07:17:29;9.03;;;3.80;;
22388;SDS011;11362;48.102;11.620;2023-02-28T07:19:54;13.67;;;5.13;;
22388;SDS011;11362;48.102;11.620;2023-02-28T07:22:19;6.37;;;4.67;;
22388;SDS011;11362;48.102;11.620;2023-02-28T07:24:45;7.10;;;6.40;;
22388;SDS011;11362;48.102;11.620;2023-02-28T07:27:10;6.90;;;6.17;;
22388;SDS011;11362;48.102;11.620;2023-02-28T07:29:35;5.67;;;4.70;;
22388;SDS011;11362;48.102;11.620;2023-02-28T07:32:00;5.90;;;3.70;;
22388;SDS011;11362;48.102;11.620;2023-02-28T07:34:26;4.87;;;3.80;;
22388;SDS011;11362;48.102;11.620;2023-02-28T07:36:54;9.53;;;5.37;;
22388;SDS011;11362;48.102;11.620;2023-02-28T07:39:20;9.67;;;4.17;;
22388;SDS011;11362;48.102;11.620;2023-02-28T07:41:46;5.93;;;4.47;;
22388;SDS011;11362;48.102;11.620;2023-02-28T07:44:12;6.60;;;4.07;;
22388;SDS011;11362;48.102;11.620;2023-02-28T07:46:37;6.50;;;3.80;;
22388;SDS011;11362;48.102;11.620;2023-02-28T07:49:03;4.20;;;3.80;;
22388;SDS011;11362;48.102;11.620;2023-02-28T07:51:29;4.70;;;3.90;;
22388;SDS011;11362;48.102;11.620;2023-02-28T07:53:55;4.83;;;3.53;;
22388;SDS011;11362;48.102;11.620;2023-02-28T07:56:21;4.20;;;3.37;;
22388;SDS011;11362;48.102;11.620;2023-02-28T07:58:46;5.70;;;4.00;;
22388;SDS011;11362;48.102;11.620;2023-02-28T08:01:12;4.73;;;3.10;;
22388;SDS011;11362;48.102;11.620;2023-02-28T08:03:38;5.13;;;3.57;;
22388;SDS011;11362;48.102;11.620;2023-02-28T08:06:04;5.83;;;3.10;;
22388;SDS011;11362;48.102;11.620;2023-02-28T08:08:31;4.40;;;3.40;;
22388;SDS011;11362;48.102;11.620;2023-02-28T08:11:00;6.17;;;3.20;;
22388;SDS011;11362;48.102;11.620;2023-02-28T08:13:27;7.67;;;3.57;;
22388;SDS011;11362;48.102;11.620;2023-02-28T08:15:54;4.23;;;3.03;;
22388;SDS011;11362;48.102;11.620;2023-02-28T08:18:20;3.60;;;2.97;;
22388;SDS011;11362;48.102;11.620;2023-02-28T08:20:46;7.40;;;3.07;;
22388;SDS011;11362;48.102;11.620;2023-02-28T08:23:11;4.40;;;2.80;;
22388;SDS011;11362;48.102;11.620;2023-02-28T08:25:37;4.27;;;3.10;;
22388;SDS011;11362;48.102;11.620;2023-02-28T08:28:02;5.10;;;3.10;;
22388;SDS011;11362;48.102;11.620;2023-02-28T08:30:27;3.83;;;3.03;;
22388;SDS011;11362;48.102;11.620;2023-02-28T08:32:53;5.47;;;3.03;;
22388;SDS011;11362;48.102;11.620;2023-02-28T08:35:18;3.90;;;2.90;;
22388;SDS011;11362;48.102;11.620;2023-02-28T08:37:44;6.07;;;3.40;;
22388;SDS011;11362;48.102;11.620;2023-02-28T08:40:09;3.63;;;2.97;;
22388;SDS011;11362;48.102;11.620;2023-02-28T08:42:35;6.03;;;3.10;;
22388;SDS011;11362;48.102;11.620;2023-02-28T08:45:00;5.33;;;3.20;;
22388;SDS011;11362;48.102;11.620;2023-02-28T08:47:26;3.70;;;2.77;;
22388;SDS011;11362;48.102;11.620;2023-02-28T08:49:51;5.87;;;3.27;;
22388;SDS011;11362;48.102;11.620;2023-02-28T08:52:16;2.73;;;2.53;;
22388;SDS011;11362;48.102;11.620;2023-02-28T08:54:42;4.07;;;2.80;;
22388;SDS011;11362;48.102;11.620;2023-02-28T08:57:07;4.07;;;2.63;;
22388;SDS011;11362;48.102;11.620;2023-02-28T08:59:33;6.13;;;2.60;;
22388;SDS011;11362;48.102;11.620;2023-02-28T09:01:58;2.93;;;2.70;;
22388;SDS011;11362;48.102;11.620;2023-02-28T09:04:23;3.67;;;3.30;;
22388;SDS011;11362;48.102;11.620;2023-02-28T09:06:49;4.40;;;3.07;;
22388;SDS011;11362;48.102;11.620;2023-02-28T09:09:14;5.13;;;2.67;;
22388;SDS011;11362;48.102;11.620;2023-02-28T09:11:41;3.07;;;2.77;;
22388;SDS011;11362;48.102;11.620;2023-02-28T09:14:06;3.23;;;2.67;;
22388;SDS011;11362;48.102;11.620;2023-02-28T09:16:32;3.73;;;2.80;;
22388;SDS011;11362;48.102;11.620;2023-02-28T09:18:58;5.73;;;2.70;;
22388;SDS011;11362;48.102;11.620;2023-02-28T09:21:23;3.10;;;2.63;;
22388;SDS011;11362;48.102;11.620;2023-02-28T09:23:49;2.77;;;2.57;;
22388;SDS011;11362;48.102;11.620;2023-02-28T09:26:16;3.17;;;2.63;;
22388;SDS011;11362;48.102;11.620;2023-02-28T09:28:43;3.53;;;2.87;;
22388;SDS011;11362;48.102;11.620;2023-02-28T09:31:27;5.90;;;3.00;;
22388;SDS011;11362;48.102;11.620;2023-02-28T09:33:54;2.73;;;2.53;;
22388;SDS011;11362;48.102;11.620;2023-02-28T09:36:22;2.53;;;2.27;;
22388;SDS011;11362;48.102;11.620;2023-02-28T09:38:48;2.97;;;2.63;;
22388;SDS011;11362;48.102;11.620;2023-02-28T09:41:18;2.93;;;2.63;;
22388;SDS011;11362;48.102;11.620;2023-02-28T09:43:55;3.07;;;2.30;;
22388;SDS011;11362;48.102;11.620;2023-02-28T09:46:37;2.70;;;2.50;;
22388;SDS011;11362;48.102;11.620;2023-02-28T09:49:06;2.43;;;2.27;;
22388;SDS011;11362;48.102;11.620;2023-02-28T09:51:58;6.10;;;2.80;;
22388;SDS011;11362;48.102;11.620;2023-02-28T09:54:27;2.80;;;2.47;;
22388;SDS011;11362;48.102;11.620;2023-02-28T09:56:56;4.27;;;2.93;;
22388;SDS011;11362;48.102;11.620;2023-02-28T09:59:31;6.10;;;3.23;;
22388;SDS011;11362;48.102;11.620;2023-02-28T10:02:13;4.00;;;3.60;;
22388;SDS011;11362;48.102;11.620;2023-02-28T10:05:04;8.00;;;2.83;;
22388;SDS011;11362;48.102;11.620;2023-02-28T10:10:22;4.20;;;2.93;;
22388;SDS011;11362;48.102;11.620;2023-02-28T10:12:53;5.63;;;3.03;;
22388;SDS011;11362;48.102;11.620;2023-02-28T10:15:21;5.23;;;3.20;;
22388;SDS011;11362;48.102;11.620;2023-02-28T10:17:52;5.07;;;2.30;;
22388;SDS011;11362;48.102;11.620;2023-02-28T10:20:21;3.37;;;2.60;;
22388;SDS011;11362;48.102;11.620;2023-02-28T10:23:09;5.77;;;2.83;;
22388;SDS011;11362;48.102;11.620;2023-02-28T10:25:50;2.80;;;2.50;;
22388;SDS011;11362;48.102;11.620;2023-02-28T10:28:20;2.50;;;2.30;;
22388;SDS011;11362;48.102;11.620;2023-02-28T10:30:50;7.07;;;2.63;;
22388;SDS011;11362;48.102;11.620;2023-02-28T10:35:50;2.50;;;2.30;;
22388;SDS011;11362;48.102;11.620;2023-02-28T10:38:24;4.90;;;2.70;;
22388;SDS011;11362;48.102;11.620;2023-02-28T10:40:51;4.70;;;3.00;;
22388;SDS011;11362;48.102;11.620;2023-02-28T10:43:29;4.37;;;3.13;;
22388;SDS011;11362;48.102;11.620;2023-02-28T10:48:27;3.70;;;2.50;;
22388;SDS011;11362;48.102;11.620;2023-02-28T10:50:56;4.77;;;2.87;;
22388;SDS011;11362;48.102;11.620;2023-02-28T10:55:58;2.50;;;2.30;;
22388;SDS011;11362;48.102;11.620;2023-02-28T11:01:36;5.80;;;2.70;;
22388;SDS011;11362;48.102;11.620;2023-02-28T11:04:16;2.70;;;2.50;;
22388;SDS011;11362;48.102;11.620;2023-02-28T11:06:42;2.63;;;2.30;;
22388;SDS011;11362;48.102;11.620;2023-02-28T11:09:41;2.80;;;2.50;;
22388;SDS011;11362;48.102;11.620;2023-02-28T11:12:04;3.30;;;3.00;;
22388;SDS011;11362;48.102;11.620;2023-02-28T11:14:36;5.97;;;2.97;;
22388;SDS011;11362;48.102;11.620;2023-02-28T11:17:13;2.90;;;2.70;;
22388;SDS011;11362;48.102;11.620;2023-02-28T11:19:45;6.50;;;2.63;;
22388;SDS011;11362;48.102;11.620;2023-02-28T11:22:16;3.53;;;3.03;;
22388;SDS011;11362;48.102;11.620;2023-02-28T11:24:46;2.83;;;2.63;;
22388;SDS011;11362;48.102;11.620;2023-02-28T11:29:55;5.97;;;2.70;;
22388;SDS011;11362;48.102;11.620;2023-02-28T11:32:22;4.70;;;2.57;;
22388;SDS011;11362;48.102;11.620;2023-02-28T11:37:41;3.50;;;2.30;;
22388;SDS011;11362;48.102;11.620;2023-02-28T11:41:12;2.83;;;2.40;;
22388;SDS011;11362;48.102;11.620;2023-02-28T11:49:25;2.50;;;2.27;;
22388;SDS011;11362;48.102;11.620;2023-02-28T11:51:56;6.80;;;2.83;;
22388;SDS011;11362;48.102;11.620;2023-02-28T12:02:32;5.10;;;2.60;;
22388;SDS011;11362;48.102;11.620;2023-02-28T12:05:21;5.73;;;2.70;;
22388;SDS011;11362;48.102;11.620;2023-02-28T12:10:52;3.73;;;2.83;;
22388;SDS011;11362;48.102;11.620;2023-02-28T12:16:16;2.97;;;2.43;;
22388;SDS011;11362;48.102;11.620;2023-02-28T12:21:20;3.37;;;2.50;;
22388;SDS011;11362;48.102;11.620;2023-02-28T12:27:12;4.33;;;2.97;;
22388;SDS011;11362;48.102;11.620;2023-02-28T12:29:52;4.43;;;3.00;;
22388;SDS011;11362;48.102;11.620;2023-02-28T12:32:26;3.30;;;2.87;;
22388;SDS011;11362;48.102;11.620;2023-02-28T12:34:57;2.57;;;2.30;;
22388;SDS011;11362;48.102;11.620;2023-02-28T12:37:29;4.43;;;2.77;;
22388;SDS011;11362;48.102;11.620;2023-02-28T12:40:03;3.50;;;2.77;;
22388;SDS011;11362;48.102;11.620;2023-02-28T12:42:45;4.70;;;2.77;;
22388;SDS011;11362;48.102;11.620;2023-02-28T12:45:19;2.77;;;2.43;;
22388;SDS011;11362;48.102;11.620;2023-02-28T12:47:48;3.03;;;2.37;;
22388;SDS011;11362;48.102;11.620;2023-02-28T12:50:17;2.43;;;2.20;;
22388;SDS011;11362;48.102;11.620;2023-02-28T12:52:57;3.03;;;2.63;;
22388;SDS011;11362;48.102;11.620;2023-02-28T13:01:00;3.10;;;2.27;;
22388;SDS011;11362;48.102;11.620;2023-02-28T13:09:18;5.67;;;2.83;;
22388;SDS011;11362;48.102;11.620;2023-02-28T13:11:48;4.13;;;2.63;;
22388;SDS011;11362;48.102;11.620;2023-02-28T13:19:20;4.27;;;3.03;;
22388;SDS011;11362;48.102;11.620;2023-02-28T13:21:47;4.23;;;2.43;;
22388;SDS011;11362;48.102;11.620;2023-02-28T13:24:35;4.20;;;2.60;;
22388;SDS011;11362;48.102;11.620;2023-02-28T13:29:32;3.00;;;2.50;;
22388;SDS011;11362;48.102;11.620;2023-02-28T13:34:37;5.30;;;2.93;;
22388;SDS011;11362;48.102;11.620;2023-02-28T13:39:48;6.47;;;2.37;;
22388;SDS011;11362;48.102;11.620;2023-02-28T13:50:21;5.90;;;2.77;;
22388;SDS011;11362;48.102;11.620;2023-02-28T14:08:42;2.93;;;2.43;;
22388;SDS011;11362;48.102;11.620;2023-02-28T14:11:37;5.43;;;2.73;;
22388;SDS011;11362;48.102;11.620;2023-02-28T14:14:03;4.50;;;2.60;;
22388;SDS011;11362;48.102;11.620;2023-02-28T14:19:20;2.97;;;2.73;;
22388;SDS011;11362;48.102;11.620;2023-02-28T14:24:40;5.13;;;4.23;;
22388;SDS011;11362;48.102;11.620;2023-02-28T14:27:36;5.47;;;3.43;;
22388;SDS011;11362;48.102;11.620;2023-02-28T14:39:16;5.47;;;3.30;;
22388;SDS011;11362;48.102;11.620;2023-02-28T14:41:45;7.57;;;3.10;;
22388;SDS011;11362;48.102;11.620;2023-02-28T14:44:15;5.73;;;3.43;;
22388;SDS011;11362;48.102;11.620;2023-02-28T14:46:46;7.43;;;3.50;;
22388;SDS011;11362;48.102;11.620;2023-02-28T14:49:18;6.77;;;3.20;;
22388;SDS011;11362;48.102;11.620;2023-02-28T14:51:46;3.30;;;3.00;;
22388;SDS011;11362;48.102;11.620;2023-02-28T14:54:14;7.53;;;3.53;;
22388;SDS011;11362;48.102;11.620;2023-02-28T14:56:41;3.77;;;2.87;;
22388;SDS011;11362;48.102;11.620;2023-02-28T14:59:26;4.40;;;3.10;;
22388;SDS011;11362;48.102;11.620;2023-02-28T15:04:42;4.43;;;3.00;;
22388;SDS011;11362;48.102;11.620;2023-02-28T15:07:10;4.73;;;3.47;;
22388;SDS011;11362;48.102;11.620;2023-02-28T15:09:39;7.47;;;2.97;;
22388;SDS011;11362;48.102;11.620;2023-02-28T15:12:04;4.63;;;3.20;;
22388;SDS011;11362;48.102;11.620;2023-02-28T15:14:30;3.53;;;3.03;;
22388;SDS011;11362;48.102;11.620;2023-02-28T15:16:58;9.40;;;6.17;;
22388;SDS011;11362;48.102;11.620;2023-02-28T15:19:26;5.97;;;5.10;;
22388;SDS011;11362;48.102;11.620;2023-02-28T15:22:03;4.87;;;4.47;;
22388;SDS011;11362;48.102;11.620;2023-02-28T15:24:41;5.13;;;3.90;;
22388;SDS011;11362;48.102;11.620;2023-02-28T15:27:22;4.47;;;3.50;;
22388;SDS011;11362;48.102;11.620;2023-02-28T15:29:53;4.57;;;3.77;;
22388;SDS011;11362;48.102;11.620;2023-02-28T15:32:26;3.40;;;3.10;;
22388;SDS011;11362;48.102;11.620;2023-02-28T15:34:53;5.37;;;3.40;;
22388;SDS011;11362;48.102;11.620;2023-02-28T15:39:51;3.53;;;3.23;;
22388;SDS011;11362;48.102;11.620;2023-02-28T15:42:19;3.53;;;3.10;;
22388;SDS011;11362;48.102;11.620;2023-02-28T15:44:46;5.77;;;3.17;;
22388;SDS011;11362;48.102;11.620;2023-02-28T15:49:58;5.30;;;3.20;;
22388;SDS011;11362;48.102;11.620;2023-02-28T15:52:34;3.60;;;3.30;;
22388;SDS011;11362;48.102;11.620;2023-02-28T15:55:20;4.77;;;3.03;;
22388;SDS011;11362;48.102;11.620;2023-02-28T15:57:48;4.13;;;3.20;;
22388;SDS011;11362;48.102;11.620;2023-02-28T16:00:21;4.87;;;3.33;;
22388;SDS011;11362;48.102;11.620;2023-02-28T16:02:48;5.30;;;3.47;;
22388;SDS011;11362;48.102;11.620;2023-02-28T16:07:45;5.23;;;3.10;;
22388;SDS011;11362;48.102;11.620;2023-02-28T16:10:11;5.53;;;3.23;;
22388;SDS011;11362;48.102;11.620;2023-02-28T16:12:38;3.07;;;2.87;;
22388;SDS011;11362;48.102;11.620;2023-02-28T16:15:08;3.80;;;3.33;;
22388;SDS011;11362;48.102;11.620;2023-02-28T16:17:42;5.10;;;3.17;;
22388;SDS011;11362;48.102;11.620;2023-02-28T16:22:43;3.13;;;2.83;;
22388;SDS011;11362;48.102;11.620;2023-02-28T16:25:13;3.30;;;3.00;;
22388;SDS011;11362;48.102;11.620;2023-02-28T16:27:38;5.60;;;3.37;;
22388;SDS011;11362;48.102;11.620;2023-02-28T16:30:04;3.87;;;3.50;;
22388;SDS011;11362;48.102;11.620;2023-02-28T16:32:32;6.03;;;3.03;;
22388;SDS011;11362;48.102;11.620;2023-02-28T16:35:00;3.27;;;2.73;;
22388;SDS011;11362;48.102;11.620;2023-02-28T16:37:26;4.27;;;2.73;;
22388;SDS011;11362;48.102;11.620;2023-02-28T16:39:52;2.90;;;2.57;;
22388;SDS011;11362;48.102;11.620;2023-02-28T16:42:24;2.97;;;2.77;;
22388;SDS011;11362;48.102;11.620;2023-02-28T16:44:52;5.27;;;3.57;;
22388;SDS011;11362;48.102;11.620;2023-02-28T16:47:18;3.17;;;2.90;;
22388;SDS011;11362;48.102;11.620;2023-02-28T16:49:43;3.23;;;2.93;;
22388;SDS011;11362;48.102;11.620;2023-02-28T16:52:09;7.27;;;3.43;;
22388;SDS011;11362;48.102;11.620;2023-02-28T16:54:35;4.40;;;3.07;;
22388;SDS011;11362;48.102;11.620;2023-02-28T16:57:01;6.03;;;3.43;;
22388;SDS011;11362;48.102;11.620;2023-02-28T16:59:26;7.00;;;3.40;;
22388;SDS011;11362;48.102;11.620;2023-02-28T17:01:52;5.40;;;3.70;;
22388;SDS011;11362;48.102;11.620;2023-02-28T17:04:19;6.40;;;3.97;;
22388;SDS011;11362;48.102;11.620;2023-02-28T17:06:44;12.00;;;6.70;;
22388;SDS011;11362;48.102;11.620;2023-02-28T17:09:18;27.33;;;17.43;;
22388;SDS011;11362;48.102;11.620;2023-02-28T17:11:45;25.77;;;17.70;;
22388;SDS011;11362;48.102;11.620;2023-02-28T17:14:11;28.97;;;18.07;;
22388;SDS011;11362;48.102;11.620;2023-02-28T17:16:36;24.93;;;17.63;;
22388;SDS011;11362;48.102;11.620;2023-02-28T17:19:04;21.47;;;15.60;;